Time;durP1;ratioP1;P1;durP2;ratioP2;P2;SDS_P1;SDS_P2;PMS_P1;PMS_P2;Temp;Humidity;BMP_temperature;BMP_pressure;BME280_temperature;BME280_humidity;BME280_pressure;Samples;Min_cycle;Max_cycle;Signal;HPM_P1;HPM_P2
2024/04/16 00:04:44;;;;;;;;;24.50;5.25;;;;;;;;10477740;28;43330;-62
2024/04/16 00:09:49;;;;;;;;;13.50;0.50;;;;;;;;10461768;28;45376;-63
2024/04/16 00:14:52;;;;;;;;;18.75;1.75;;;;;;;;10470396;28;45491;-62
2024/04/16 00:19:56;;;;;;;;;19.50;1.25;;;;;;;;10465660;28;45502;-62
2024/04/16 00:25:00;;;;;;;;;21.25;0.00;;;;;;;;10480573;27;43454;-62
2024/04/16 00:30:05;;;;;;;;;16.75;0.25;;;;;;;;10482240;27;45365;-62
2024/04/16 00:35:08;;;;;;;;;21.75;1.25;;;;;;;;10500721;28;44356;-62
2024/04/16 00:40:12;;;;;;;;;17.50;1.75;;;;;;;;10497603;27;49583;-60
2024/04/16 00:45:16;;;;;;;;;16.50;0.00;;;;;;;;10504526;27;43035;-63
2024/04/16 00:50:20;;;;;;;;;17.00;0.00;;;;;;;;10461186;27;45158;-62
2024/04/16 00:55:23;;;;;;;;;12.50;0.00;;;;;;;;10488691;28;42967;-61
2024/04/16 01:00:27;;;;;;;;;15.75;0.25;;;;;;;;10490107;28;43159;-62
2024/04/16 01:05:32;;;;;;;;;12.75;0.00;;;;;;;;10487872;28;43853;-62
2024/04/16 01:10:39;;;;;;;;;16.00;0.75;;;;;;;;10496372;28;42966;-61
2024/04/16 01:15:43;;;;;;;;;13.00;0.75;;;;;;;;10491488;27;43194;-61
2024/04/16 01:20:46;;;;;;;;;13.25;0.00;;;;;;;;10499880;28;43496;-61
2024/04/16 01:25:50;;;;;;;;;16.00;0.75;;;;;;;;10497953;27;43003;-61
2024/04/16 01:30:53;;;;;;;;;13.50;0.50;;;;;;;;10501546;27;44029;-61
2024/04/16 01:35:57;;;;;;;;;17.75;1.00;;;;;;;;10526473;27;43838;-61
2024/04/16 01:41:03;;;;;;;;;15.25;0.00;;;;;;;;10492928;27;43606;-61
2024/04/16 01:46:07;;;;;;;;;17.00;1.50;;;;;;;;10511104;27;43755;-61
2024/04/16 01:51:11;;;;;;;;;15.75;0.25;;;;;;;;10504887;27;42943;-61
2024/04/16 01:56:15;;;;;;;;;16.00;0.00;;;;;;;;10466407;28;45530;-61
2024/04/16 02:01:19;;;;;;;;;14.00;1.00;;;;;;;;10466520;28;44359;-61
2024/04/16 02:06:23;;;;;;;;;15.50;0.00;;;;;;;;10467633;27;43076;-61
2024/04/16 02:11:27;;;;;;;;;14.25;0.00;;;;;;;;10466669;28;42991;-61
2024/04/16 02:16:30;;;;;;;;;18.25;0.00;;;;;;;;10512175;27;43005;-61
2024/04/16 02:21:33;;;;;;;;;12.50;0.00;;;;;;;;10500957;27;42916;-60
2024/04/16 02:26:37;;;;;;;;;13.50;0.00;;;;;;;;10509045;27;43748;-60
2024/04/16 02:31:41;;;;;;;;;14.50;0.50;;;;;;;;10507713;27;43684;-60
2024/04/16 02:36:45;;;;;;;;;13.50;0.00;;;;;;;;10504809;27;43584;-60
2024/04/16 02:41:49;;;;;;;;;13.50;0.00;;;;;;;;10491362;27;43520;-60
2024/04/16 02:46:53;;;;;;;;;19.25;0.00;;;;;;;;10491199;28;43408;-60
2024/04/16 02:51:57;;;;;;;;;15.00;0.00;;;;;;;;10494413;28;43875;-59
2024/04/16 02:57:01;;;;;;;;;17.75;1.00;;;;;;;;10495439;28;43197;-60
2024/04/16 03:02:05;;;;;;;;;20.50;0.75;;;;;;;;10496069;27;43146;-60
2024/04/16 03:07:10;;;;;;;;;15.75;0.50;;;;;;;;10500487;27;43033;-60
2024/04/16 03:12:14;;;;;;;;;14.00;0.00;;;;;;;;10490255;28;43505;-61
2024/04/16 03:17:18;;;;;;;;;15.50;0.00;;;;;;;;10427845;28;45625;-60
2024/04/16 03:22:21;;;;;;;;;12.00;0.00;;;;;;;;10442014;28;43303;-60
2024/04/16 03:27:25;;;;;;;;;15.00;0.00;;;;;;;;10450385;28;44975;-60
2024/04/16 03:32:29;;;;;;;;;15.00;0.00;;;;;;;;10452544;28;43004;-60
2024/04/16 03:37:32;;;;;;;;;11.00;0.00;;;;;;;;10447307;28;43042;-60
2024/04/16 03:42:36;;;;;;;;;14.00;0.75;;;;;;;;10452686;28;43495;-59
2024/04/16 03:47:39;;;;;;;;;11.00;0.00;;;;;;;;10453954;28;44074;-60
2024/04/16 03:52:43;;;;;;;;;12.50;0.00;;;;;;;;10452661;28;44024;-60
2024/04/16 03:57:47;;;;;;;;;12.75;0.50;;;;;;;;10445141;28;43570;-60
2024/04/16 04:02:53;;;;;;;;;12.00;0.00;;;;;;;;10452620;28;44388;-60
2024/04/16 04:07:58;;;;;;;;;11.00;0.00;;;;;;;;10453310;27;43619;-60
2024/04/16 04:13:02;;;;;;;;;15.50;0.00;;;;;;;;10451909;28;43647;-60
2024/04/16 04:18:06;;;;;;;;;13.25;0.00;;;;;;;;10443148;28;44686;-61
2024/04/16 04:23:10;;;;;;;;;11.00;0.00;;;;;;;;10449753;28;43074;-61
2024/04/16 04:28:15;;;;;;;;;13.75;0.00;;;;;;;;10454638;28;42973;-61
2024/04/16 04:33:18;;;;;;;;;12.25;0.00;;;;;;;;10451541;28;44188;-60
2024/04/16 04:38:24;;;;;;;;;11.00;0.00;;;;;;;;10452464;28;43108;-61
2024/04/16 04:43:28;;;;;;;;;13.50;0.00;;;;;;;;10451788;28;43149;-61
2024/04/16 04:48:31;;;;;;;;;13.00;0.00;;;;;;;;10450970;28;42973;-62
2024/04/16 04:53:35;;;;;;;;;11.00;0.00;;;;;;;;10471989;27;43284;-61
2024/04/16 04:58:39;;;;;;;;;13.75;0.00;;;;;;;;10451768;28;43558;-59
2024/04/16 05:03:43;;;;;;;;;16.25;1.00;;;;;;;;10450179;28;43036;-63
2024/04/16 05:08:48;;;;;;;;;11.75;0.00;;;;;;;;10452412;28;44036;-62
2024/04/16 05:13:51;;;;;;;;;14.00;0.00;;;;;;;;10463939;28;43205;-62
2024/04/16 05:18:55;;;;;;;;;13.75;0.00;;;;;;;;10477516;28;45184;-60
2024/04/16 05:24:02;;;;;;;;;12.50;0.00;;;;;;;;10493287;28;44075;-62
2024/04/16 05:29:06;;;;;;;;;13.75;0.00;;;;;;;;10499526;27;43568;-62
2024/04/16 05:34:10;;;;;;;;;14.00;0.00;;;;;;;;10493914;28;44027;-62
2024/04/16 05:39:14;;;;;;;;;11.00;0.00;;;;;;;;10492169;28;43562;-63
2024/04/16 05:44:18;;;;;;;;;14.00;0.00;;;;;;;;10494847;27;43122;-63
2024/04/16 05:49:22;;;;;;;;;12.00;0.00;;;;;;;;10494019;28;43958;-62
2024/04/16 05:54:27;;;;;;;;;12.00;0.00;;;;;;;;10492522;28;43026;-62
2024/04/16 05:59:30;;;;;;;;;16.00;0.00;;;;;;;;10493294;28;42986;-62
2024/04/16 06:04:34;;;;;;;;;16.75;0.00;;;;;;;;10498322;27;43579;-62
2024/04/16 06:09:38;;;;;;;;;13.50;0.00;;;;;;;;10489103;28;43524;-63
2024/04/16 06:14:42;;;;;;;;;12.00;0.00;;;;;;;;10481919;28;44050;-62
2024/04/16 06:19:45;;;;;;;;;11.25;0.00;;;;;;;;10456822;28;43216;-62
2024/04/16 06:24:49;;;;;;;;;17.50;0.25;;;;;;;;10458112;28;43768;-62
2024/04/16 06:29:53;;;;;;;;;16.00;0.00;;;;;;;;10446822;28;43610;-62
2024/04/16 06:34:56;;;;;;;;;14.00;0.00;;;;;;;;10451336;28;43479;-62
2024/04/16 06:39:59;;;;;;;;;13.75;0.00;;;;;;;;10453319;28;43038;-62
2024/04/16 06:45:06;;;;;;;;;11.00;0.00;;;;;;;;10454841;28;48605;-62
2024/04/16 06:50:08;;;;;;;;;13.50;0.00;;;;;;;;10454735;28;43792;-62
2024/04/16 06:55:12;;;;;;;;;12.00;0.00;;;;;;;;10452918;28;42956;-62
2024/04/16 07:00:16;;;;;;;;;13.75;0.00;;;;;;;;10455339;28;42988;-62
2024/04/16 07:05:19;;;;;;;;;11.00;0.00;;;;;;;;10455307;28;43713;-62
2024/04/16 07:10:24;;;;;;;;;13.25;0.00;;;;;;;;10453527;28;43227;-62
2024/04/16 07:15:29;;;;;;;;;13.50;0.00;;;;;;;;10477394;27;43600;-62
2024/04/16 07:20:33;;;;;;;;;17.50;1.25;;;;;;;;10491449;27;42986;-62
2024/04/16 07:25:37;;;;;;;;;13.00;0.75;;;;;;;;10492536;28;43067;-62
2024/04/16 07:30:42;;;;;;;;;14.00;0.00;;;;;;;;10501423;27;44873;-62
2024/04/16 07:35:46;;;;;;;;;12.00;0.00;;;;;;;;10490462;27;42962;-61
2024/04/16 07:40:56;;;;;;;;;17.00;0.00;;;;;;;;10489722;28;49708;-61
2024/04/16 07:46:00;;;;;;;;;14.00;0.00;;;;;;;;10496380;28;48473;-63
2024/04/16 07:51:05;;;;;;;;;12.00;0.00;;;;;;;;10495101;27;42938;-61
2024/04/16 07:56:09;;;;;;;;;11.00;0.00;;;;;;;;10490886;27;43025;-62
2024/04/16 08:01:14;;;;;;;;;13.00;0.00;;;;;;;;10492481;28;42934;-62
2024/04/16 08:06:17;;;;;;;;;14.00;0.00;;;;;;;;10479244;28;45419;-61
2024/04/16 08:11:21;;;;;;;;;11.75;0.00;;;;;;;;10477876;28;45209;-62
2024/04/16 08:16:25;;;;;;;;;11.00;0.00;;;;;;;;10506191;27;43124;-59
2024/04/16 08:21:29;;;;;;;;;11.75;0.00;;;;;;;;10498095;27;43452;-59
2024/04/16 08:26:32;;;;;;;;;18.50;1.00;;;;;;;;10490556;27;43321;-63
2024/04/16 08:31:36;;;;;;;;;14.00;0.00;;;;;;;;10495134;27;42988;-65
2024/04/16 08:36:40;;;;;;;;;11.00;0.00;;;;;;;;10493593;27;42894;-60
2024/04/16 08:41:43;;;;;;;;;12.00;0.00;;;;;;;;10494110;27;44071;-62
2024/04/16 08:46:47;;;;;;;;;13.50;0.00;;;;;;;;10477037;27;43568;-64
2024/04/16 08:51:55;;;;;;;;;12.50;0.00;;;;;;;;10485606;27;44387;-61
2024/04/16 08:56:59;;;;;;;;;11.50;0.00;;;;;;;;10490275;27;43044;-62
2024/04/16 09:02:03;;;;;;;;;13.50;0.00;;;;;;;;10496996;27;43246;-61
2024/04/16 09:07:08;;;;;;;;;16.00;0.00;;;;;;;;10494971;27;43259;-60
2024/04/16 09:12:12;;;;;;;;;15.25;0.00;;;;;;;;10467030;27;43093;-61
2024/04/16 09:17:16;;;;;;;;;20.00;0.00;;;;;;;;10507680;27;42998;-62
2024/04/16 09:22:24;;;;;;;;;24.25;0.00;;;;;;;;10503891;27;44261;-61
2024/04/16 09:27:28;;;;;;;;;19.25;0.25;;;;;;;;10525702;27;43663;-64
2024/04/16 09:32:31;;;;;;;;;24.00;2.25;;;;;;;;10491275;27;42952;-64
2024/04/16 09:37:35;;;;;;;;;16.50;0.50;;;;;;;;10508393;27;42944;-62
2024/04/16 09:42:39;;;;;;;;;20.75;2.00;;;;;;;;10517476;27;43117;-63
2024/04/16 09:47:45;;;;;;;;;18.50;1.50;;;;;;;;10516613;27;44033;-64
2024/04/16 09:52:52;;;;;;;;;20.00;0.25;;;;;;;;10517551;27;42982;-63
2024/04/16 09:57:58;;;;;;;;;17.50;1.00;;;;;;;;10511097;27;43483;-63
2024/04/16 10:03:05;;;;;;;;;19.00;0.00;;;;;;;;10517282;27;42981;-64
2024/04/16 10:08:08;;;;;;;;;26.00;0.00;;;;;;;;10469653;28;43271;-63
2024/04/16 10:13:12;;;;;;;;;19.00;1.00;;;;;;;;10500475;28;43481;-61
2024/04/16 10:18:16;;;;;;;;;23.75;0.00;;;;;;;;10458024;28;43563;-62
2024/04/16 10:23:21;;;;;;;;;15.75;0.00;;;;;;;;10459182;28;42932;-62
2024/04/16 10:28:30;;;;;;;;;20.75;1.50;;;;;;;;10456411;28;43304;-63
2024/04/16 10:33:37;;;;;;;;;17.50;0.00;;;;;;;;10456708;28;43546;-63
2024/04/16 10:38:42;;;;;;;;;19.00;2.75;;;;;;;;10443414;28;44128;-62
2024/04/16 10:43:46;;;;;;;;;12.00;0.00;;;;;;;;10451709;28;43744;-64
2024/04/16 10:48:50;;;;;;;;;16.25;0.00;;;;;;;;10447531;28;43501;-63
2024/04/16 10:54:04;;;;;;;;;16.75;2.00;;;;;;;;10435321;28;42943;-60
2024/04/16 10:59:12;;;;;;;;;16.50;0.00;;;;;;;;10450863;28;44262;-61
2024/04/16 11:04:17;;;;;;;;;11.50;0.00;;;;;;;;10444571;28;43252;-60
2024/04/16 11:09:21;;;;;;;;;19.00;1.00;;;;;;;;10455569;28;43196;-64
2024/04/16 11:14:28;;;;;;;;;16.50;0.00;;;;;;;;10451228;28;43620;-62
2024/04/16 11:19:33;;;;;;;;;17.75;0.50;;;;;;;;10454643;28;43480;-60
2024/04/16 11:24:37;;;;;;;;;12.75;0.00;;;;;;;;10455196;28;43597;-61
2024/04/16 11:29:49;;;;;;;;;12.00;0.00;;;;;;;;10450959;28;44247;-60
2024/04/16 11:34:52;;;;;;;;;14.25;0.00;;;;;;;;10450645;28;43798;-59
2024/04/16 11:39:56;;;;;;;;;23.75;4.25;;;;;;;;10427326;28;43075;-59
2024/04/16 11:45:00;;;;;;;;;13.25;0.00;;;;;;;;10452915;28;44022;-58
2024/04/16 11:50:04;;;;;;;;;17.75;1.00;;;;;;;;10460097;28;43589;-60
2024/04/16 11:55:08;;;;;;;;;17.00;0.25;;;;;;;;10483492;28;43018;-60
2024/04/16 12:00:12;;;;;;;;;17.75;1.50;;;;;;;;10451513;28;45538;-60
2024/04/16 12:05:18;;;;;;;;;18.75;3.25;;;;;;;;10451690;28;43260;-59
2024/04/16 12:10:21;;;;;;;;;24.75;4.50;;;;;;;;10449526;28;44016;-59
2024/04/16 12:15:26;;;;;;;;;13.50;0.75;;;;;;;;10470176;28;43064;-59
2024/04/16 12:20:29;;;;;;;;;19.75;2.00;;;;;;;;10492561;27;43536;-59
2024/04/16 12:25:37;;;;;;;;;25.00;3.00;;;;;;;;10492996;27;45033;-60
2024/04/16 12:30:40;;;;;;;;;20.25;2.00;;;;;;;;10498035;27;43476;-60
2024/04/16 12:35:44;;;;;;;;;21.25;2.25;;;;;;;;10499058;27;42982;-60
2024/04/16 12:40:47;;;;;;;;;14.00;0.50;;;;;;;;10500273;27;43731;-59
2024/04/16 12:45:58;;;;;;;;;19.00;1.00;;;;;;;;10495970;27;48953;-59
2024/04/16 12:51:01;;;;;;;;;14.75;1.50;;;;;;;;10482941;28;49336;-60
2024/04/16 12:56:07;;;;;;;;;20.50;1.25;;;;;;;;10489220;28;48603;-60
2024/04/16 13:01:10;;;;;;;;;17.50;1.25;;;;;;;;10495154;27;43625;-59
2024/04/16 13:06:16;;;;;;;;;20.75;0.50;;;;;;;;10494752;27;43585;-60
2024/04/16 13:11:19;;;;;;;;;15.25;0.50;;;;;;;;10492251;28;43623;-59
2024/04/16 13:16:23;;;;;;;;;26.00;1.75;;;;;;;;10499858;27;43908;-60
2024/04/16 13:21:27;;;;;;;;;14.00;1.00;;;;;;;;10507991;28;42991;-59
2024/04/16 13:26:31;;;;;;;;;14.75;2.00;;;;;;;;10500475;27;43743;-59
2024/04/16 13:31:35;;;;;;;;;12.75;0.00;;;;;;;;10497186;27;43013;-59
2024/04/16 13:36:38;;;;;;;;;14.50;0.25;;;;;;;;10508068;28;44681;-59
2024/04/16 13:41:42;;;;;;;;;15.00;0.50;;;;;;;;10509209;27;43084;-59
2024/04/16 13:46:46;;;;;;;;;15.25;0.00;;;;;;;;10508329;28;43022;-59
2024/04/16 13:51:49;;;;;;;;;13.75;0.00;;;;;;;;10509561;27;42934;-59
2024/04/16 13:56:53;;;;;;;;;12.00;0.00;;;;;;;;10508981;27;43945;-59
2024/04/16 14:01:58;;;;;;;;;18.00;0.00;;;;;;;;10508011;27;43147;-59
2024/04/16 14:07:03;;;;;;;;;17.25;0.25;;;;;;;;10507772;28;42930;-59
2024/04/16 14:12:07;;;;;;;;;12.00;0.00;;;;;;;;10504684;27;43093;-59
2024/04/16 14:17:11;;;;;;;;;14.50;0.25;;;;;;;;10475835;28;42963;-59
2024/04/16 14:22:14;;;;;;;;;12.00;0.00;;;;;;;;10464015;28;43363;-59
2024/04/16 14:27:18;;;;;;;;;15.75;0.00;;;;;;;;10457064;28;43027;-59
2024/04/16 14:32:23;;;;;;;;;15.00;0.00;;;;;;;;10457734;28;42936;-59
2024/04/16 14:37:26;;;;;;;;;18.25;0.50;;;;;;;;10457906;28;43025;-60
2024/04/16 14:42:30;;;;;;;;;12.75;0.00;;;;;;;;10457801;28;43725;-59
2024/04/16 14:47:34;;;;;;;;;12.75;0.00;;;;;;;;10458096;28;43609;-59
2024/04/16 14:52:37;;;;;;;;;12.75;0.00;;;;;;;;10457802;28;43752;-59
2024/04/16 14:57:41;;;;;;;;;16.50;0.00;;;;;;;;10456117;28;42998;-59
2024/04/16 15:02:46;;;;;;;;;15.00;0.00;;;;;;;;10457263;28;43671;-59
2024/04/16 15:07:51;;;;;;;;;14.75;1.00;;;;;;;;10456756;28;43821;-59
2024/04/16 15:12:55;;;;;;;;;17.00;0.00;;;;;;;;10455981;28;42971;-59
2024/04/16 15:17:59;;;;;;;;;14.00;0.50;;;;;;;;10476974;28;45521;-59
2024/04/16 15:23:02;;;;;;;;;13.50;0.50;;;;;;;;10497819;28;42908;-59
2024/04/16 15:28:06;;;;;;;;;13.00;0.00;;;;;;;;10498649;28;43027;-59
2024/04/16 15:33:10;;;;;;;;;15.50;2.00;;;;;;;;10490926;28;43602;-59
2024/04/16 15:38:14;;;;;;;;;15.00;0.00;;;;;;;;10491391;27;43018;-60
2024/04/16 15:43:19;;;;;;;;;12.75;0.00;;;;;;;;10481633;27;43031;-59
2024/04/16 15:48:22;;;;;;;;;12.50;0.00;;;;;;;;10498561;27;42992;-59
2024/04/16 15:53:27;;;;;;;;;15.75;0.00;;;;;;;;10497049;27;43020;-59
2024/04/16 15:58:34;;;;;;;;;14.50;0.00;;;;;;;;10496826;27;43344;-59
2024/04/16 16:03:38;;;;;;;;;12.00;0.00;;;;;;;;10498295;28;43738;-59
2024/04/16 16:08:42;;;;;;;;;13.00;0.00;;;;;;;;10496785;28;43596;-59
2024/04/16 16:13:46;;;;;;;;;12.75;0.00;;;;;;;;10497801;27;42987;-59
2024/04/16 16:18:49;;;;;;;;;14.50;0.00;;;;;;;;10497872;28;42953;-59
2024/04/16 16:23:56;;;;;;;;;17.25;1.75;;;;;;;;10492234;28;43573;-59
2024/04/16 16:29:00;;;;;;;;;18.75;0.50;;;;;;;;10497256;28;43145;-59
2024/04/16 16:34:08;;;;;;;;;14.00;1.00;;;;;;;;10496031;28;43006;-59
2024/04/16 16:39:11;;;;;;;;;15.00;0.00;;;;;;;;10497084;28;43021;-59
2024/04/16 16:44:15;;;;;;;;;13.00;0.00;;;;;;;;10496742;28;43092;-59
2024/04/16 16:49:19;;;;;;;;;15.00;0.00;;;;;;;;10496483;28;43656;-59
2024/04/16 16:54:22;;;;;;;;;12.75;0.00;;;;;;;;10496241;28;44119;-59
2024/04/16 16:59:26;;;;;;;;;12.50;0.00;;;;;;;;10496697;28;44072;-59
2024/04/16 17:04:29;;;;;;;;;14.75;0.00;;;;;;;;10497511;28;44056;-59
2024/04/16 17:09:33;;;;;;;;;15.00;1.75;;;;;;;;10495120;28;42950;-59
2024/04/16 17:14:36;;;;;;;;;16.00;1.75;;;;;;;;10495035;28;43363;-59
2024/04/16 17:19:41;;;;;;;;;14.00;0.00;;;;;;;;10495606;28;42946;-59
2024/04/16 17:24:44;;;;;;;;;15.00;0.00;;;;;;;;10490989;28;42971;-59
2024/04/16 17:29:48;;;;;;;;;15.75;1.00;;;;;;;;10494459;28;43156;-59
2024/04/16 17:34:51;;;;;;;;;16.50;1.00;;;;;;;;10495035;28;42951;-59
2024/04/16 17:39:55;;;;;;;;;16.00;1.00;;;;;;;;10494529;28;43568;-59
2024/04/16 17:44:58;;;;;;;;;17.25;1.00;;;;;;;;10495534;27;42980;-59
2024/04/16 17:50:04;;;;;;;;;15.00;0.00;;;;;;;;10494419;28;43048;-59
2024/04/16 17:55:08;;;;;;;;;13.50;1.00;;;;;;;;10493157;27;42861;-59
2024/04/16 18:00:14;;;;;;;;;14.25;0.00;;;;;;;;10499956;27;43236;-59
2024/04/16 18:05:17;;;;;;;;;15.00;0.00;;;;;;;;10488665;27;42983;-60
2024/04/16 18:10:21;;;;;;;;;14.50;0.00;;;;;;;;10502068;27;44371;-59
2024/04/16 18:15:25;;;;;;;;;20.75;0.00;;;;;;;;10501442;27;48539;-60
2024/04/16 18:20:29;;;;;;;;;13.00;0.00;;;;;;;;10500637;28;42996;-60
2024/04/16 18:25:33;;;;;;;;;12.00;0.00;;;;;;;;10501510;27;43746;-59
2024/04/16 18:30:38;;;;;;;;;15.50;0.00;;;;;;;;10501762;27;43825;-60
2024/04/16 18:35:43;;;;;;;;;13.00;0.00;;;;;;;;10504179;28;43018;-59
2024/04/16 18:40:46;;;;;;;;;14.00;1.00;;;;;;;;10499546;28;43756;-60
2024/04/16 18:45:53;;;;;;;;;14.00;1.00;;;;;;;;10500202;27;43587;-60
2024/04/16 18:50:55;;;;;;;;;13.75;1.00;;;;;;;;10500394;28;49307;-60
2024/04/16 18:56:00;;;;;;;;;15.25;1.50;;;;;;;;10499655;28;43655;-60
2024/04/16 19:01:04;;;;;;;;;15.00;1.75;;;;;;;;10498839;27;44645;-59
2024/04/16 19:06:13;;;;;;;;;15.25;1.00;;;;;;;;10483751;27;43903;-59
2024/04/16 19:11:16;;;;;;;;;13.00;0.00;;;;;;;;10499194;27;43481;-59
2024/04/16 19:16:20;;;;;;;;;16.00;2.50;;;;;;;;10487467;27;43581;-59
2024/04/16 19:21:24;;;;;;;;;15.50;1.75;;;;;;;;10483942;28;43119;-59
2024/04/16 19:26:27;;;;;;;;;17.25;2.00;;;;;;;;10488222;27;43079;-59
2024/04/16 19:31:32;;;;;;;;;16.00;1.00;;;;;;;;10473981;27;43040;-59
2024/04/16 19:36:38;;;;;;;;;19.00;1.00;;;;;;;;10490396;27;42955;-59
2024/04/16 19:41:42;;;;;;;;;16.50;1.50;;;;;;;;10472085;28;44433;-59
2024/04/16 19:46:46;;;;;;;;;14.50;1.00;;;;;;;;10485500;27;43576;-59
2024/04/16 19:51:51;;;;;;;;;14.00;1.50;;;;;;;;10495260;27;43009;-59
2024/04/16 19:56:55;;;;;;;;;15.75;1.00;;;;;;;;10491532;27;42906;-59
2024/04/16 20:01:58;;;;;;;;;16.00;1.75;;;;;;;;10486381;27;42905;-59
2024/04/16 20:07:02;;;;;;;;;18.75;1.50;;;;;;;;10489885;28;43043;-59
2024/04/16 20:12:06;;;;;;;;;15.75;1.00;;;;;;;;10496724;27;43015;-59
2024/04/16 20:17:09;;;;;;;;;16.00;1.50;;;;;;;;10482286;28;43028;-59
2024/04/16 20:22:13;;;;;;;;;18.00;2.00;;;;;;;;10495516;27;43492;-58
2024/04/16 20:27:17;;;;;;;;;16.25;1.75;;;;;;;;10483098;27;43043;-59
2024/04/16 20:32:21;;;;;;;;;14.75;2.00;;;;;;;;10479645;27;43211;-58
2024/04/16 20:37:25;;;;;;;;;17.75;1.50;;;;;;;;10477645;28;43872;-59
2024/04/16 20:42:28;;;;;;;;;14.75;1.00;;;;;;;;10480913;28;44183;-59
2024/04/16 20:47:32;;;;;;;;;14.75;1.75;;;;;;;;10480187;27;44427;-59
2024/04/16 20:52:38;;;;;;;;;16.25;1.00;;;;;;;;10487689;27;43733;-59
2024/04/16 20:57:42;;;;;;;;;14.00;1.00;;;;;;;;10494689;28;43762;-59
2024/04/16 21:02:45;;;;;;;;;15.00;0.50;;;;;;;;10493944;27;43238;-59
2024/04/16 21:07:49;;;;;;;;;13.00;0.00;;;;;;;;10494032;28;43750;-59
2024/04/16 21:12:53;;;;;;;;;16.25;3.25;;;;;;;;10493860;28;43087;-59
2024/04/16 21:17:56;;;;;;;;;14.00;1.50;;;;;;;;10491613;27;43455;-59
2024/04/16 21:23:01;;;;;;;;;15.00;1.00;;;;;;;;10493234;27;42997;-59
2024/04/16 21:28:05;;;;;;;;;15.75;2.50;;;;;;;;10493616;27;43548;-59
2024/04/16 21:33:09;;;;;;;;;14.75;2.00;;;;;;;;10496905;27;43278;-59
2024/04/16 21:38:13;;;;;;;;;15.25;2.25;;;;;;;;10502085;27;43150;-59
2024/04/16 21:43:17;;;;;;;;;16.00;2.50;;;;;;;;10496219;27;43773;-61
2024/04/16 21:48:20;;;;;;;;;19.00;3.00;;;;;;;;10500162;27;43151;-60
2024/04/16 21:53:25;;;;;;;;;22.75;6.50;;;;;;;;10484373;27;44740;-59
2024/04/16 21:58:29;;;;;;;;;17.75;2.00;;;;;;;;10500383;27;43028;-60
2024/04/16 22:03:33;;;;;;;;;19.00;4.00;;;;;;;;10492321;27;42979;-60
2024/04/16 22:08:36;;;;;;;;;17.75;4.00;;;;;;;;10495725;27;44179;-59
2024/04/16 22:13:41;;;;;;;;;21.75;4.25;;;;;;;;10488798;27;44282;-61
2024/04/16 22:18:44;;;;;;;;;20.75;3.00;;;;;;;;10491106;27;43839;-60
2024/04/16 22:23:48;;;;;;;;;18.00;3.00;;;;;;;;10486563;27;44279;-61
2024/04/16 22:28:51;;;;;;;;;18.75;5.75;;;;;;;;10492219;28;43581;-61
2024/04/16 22:33:55;;;;;;;;;21.25;5.25;;;;;;;;10486474;27;43610;-61
2024/04/16 22:38:59;;;;;;;;;25.25;6.00;;;;;;;;10492046;28;43153;-62
2024/04/16 22:44:02;;;;;;;;;24.50;9.75;;;;;;;;10488363;27;42919;-62
2024/04/16 22:49:06;;;;;;;;;26.00;8.00;;;;;;;;10494725;27;44205;-61
2024/04/16 22:54:10;;;;;;;;;26.50;8.50;;;;;;;;10478877;27;42916;-60
2024/04/16 22:59:14;;;;;;;;;21.50;7.50;;;;;;;;10493818;28;43834;-58
2024/04/16 23:04:18;;;;;;;;;22.50;8.00;;;;;;;;10487547;27;43005;-59
2024/04/16 23:09:21;;;;;;;;;24.75;9.75;;;;;;;;10490823;27;43039;-61
2024/04/16 23:14:24;;;;;;;;;32.75;9.00;;;;;;;;10492736;28;43046;-60
2024/04/16 23:19:27;;;;;;;;;28.00;8.75;;;;;;;;10456330;28;42990;-61
2024/04/16 23:24:31;;;;;;;;;20.50;6.50;;;;;;;;10454388;28;43242;-62
2024/04/16 23:29:35;;;;;;;;;24.25;8.00;;;;;;;;10449363;28;43500;-60
2024/04/16 23:34:39;;;;;;;;;23.00;7.50;;;;;;;;10454698;28;44077;-63
2024/04/16 23:39:43;;;;;;;;;26.00;8.25;;;;;;;;10455613;28;43489;-65
2024/04/16 23:44:47;;;;;;;;;41.50;16.75;;;;;;;;10441485;28;43306;-63
2024/04/16 23:49:51;;;;;;;;;36.75;11.50;;;;;;;;10455263;28;43550;-61
2024/04/16 23:54:55;;;;;;;;;30.75;11.50;;;;;;;;10459066;28;43011;-64
2024/04/16 23:59:59;;;;;;;;;30.75;8.75;;;;;;;;10438795;28;44243;-62
